createdAt,value
2022-10-13T00:08:03.128Z,99.90
2022-10-13T00:18:04.854Z,99.90
2022-10-13T00:28:06.492Z,99.90
2022-10-13T00:38:08.133Z,99.90
2022-10-13T00:48:09.811Z,99.90
2022-10-13T00:58:16.201Z,99.90
2022-10-13T01:08:18.996Z,99.90
2022-10-13T01:18:23.999Z,99.90
2022-10-13T01:29:03.755Z,99.90
2022-10-13T01:40:16.234Z,99.90
2022-10-13T01:50:19.280Z,99.90
2022-10-13T02:00:22.212Z,99.90
2022-10-13T02:10:34.990Z,99.90
2022-10-13T02:20:37.089Z,99.90
2022-10-13T02:30:41.110Z,99.90
2022-10-13T02:40:42.839Z,99.90
2022-10-13T02:50:44.477Z,99.90
2022-10-13T03:00:46.164Z,99.90
2022-10-13T03:10:47.814Z,99.90
2022-10-13T03:21:02.026Z,99.90
2022-10-13T03:31:06.813Z,99.90
2022-10-13T03:41:13.725Z,99.90
2022-10-13T03:51:18.191Z,99.90
2022-10-13T04:01:22.087Z,99.90
2022-10-13T04:11:23.960Z,99.90
2022-10-13T04:21:26.233Z,99.90
2022-10-13T04:31:29.227Z,99.90
2022-10-13T04:41:31.015Z,99.90
2022-10-13T04:51:33.013Z,99.90
2022-10-13T05:01:35.904Z,99.90
2022-10-13T05:11:37.559Z,99.90
2022-10-13T05:21:39.325Z,99.90
2022-10-13T05:31:41.392Z,99.90
2022-10-13T05:41:43.004Z,99.90
2022-10-13T05:51:48.720Z,99.90
2022-10-13T06:01:51.178Z,99.90
2022-10-13T06:11:52.793Z,99.90
2022-10-13T06:21:54.462Z,99.90
2022-10-13T06:31:56.096Z,99.90
2022-10-13T06:41:57.893Z,99.90
2022-10-13T06:51:59.535Z,99.90
2022-10-13T07:02:01.161Z,99.90
2022-10-13T07:12:02.804Z,99.90
2022-10-13T07:22:04.696Z,99.90
2022-10-13T07:32:07.168Z,99.90
2022-10-13T07:42:08.798Z,99.90
2022-10-13T07:52:10.561Z,99.90
2022-10-13T08:02:12.172Z,99.90
2022-10-13T08:12:13.828Z,99.90
2022-10-13T08:22:15.574Z,99.90
2022-10-13T08:32:18.235Z,99.90
2022-10-13T08:42:22.378Z,99.90
2022-10-13T08:52:27.800Z,99.90
2022-10-13T09:02:31.142Z,99.90
2022-10-13T09:12:33.894Z,99.90
2022-10-13T09:22:39.457Z,99.90
2022-10-13T09:32:41.085Z,99.90
2022-10-13T09:42:49.465Z,99.90
2022-10-13T09:52:51.945Z,99.90
2022-10-13T10:03:11.036Z,99.90
2022-10-13T10:13:14.387Z,99.90
2022-10-13T10:23:22.884Z,99.90
2022-10-13T10:33:44.826Z,99.80
2022-10-13T10:43:56.308Z,99.50
2022-10-13T10:54:40.838Z,99.20
2022-10-13T11:04:46.980Z,98.90
2022-10-13T11:14:54.769Z,98.30
2022-10-13T11:25:34.760Z,98.60
2022-10-13T11:35:36.415Z,98.40
2022-10-13T11:46:05.201Z,98.20
2022-10-13T11:56:22.549Z,98.00
2022-10-13T12:06:33.004Z,97.80
2022-10-13T12:16:34.667Z,97.80
2022-10-13T12:26:37.263Z,97.50
2022-10-13T12:36:38.930Z,97.30
2022-10-13T12:46:43.429Z,97.10
2022-10-13T12:56:45.567Z,96.80
2022-10-13T13:06:57.633Z,97.20
2022-10-13T13:17:11.081Z,97.50
2022-10-13T13:27:26.520Z,97.80
2022-10-13T13:37:38.794Z,98.00
2022-10-13T13:47:40.589Z,97.90
2022-10-13T13:57:43.498Z,98.20
2022-10-13T14:07:45.140Z,98.20
2022-10-13T14:17:46.846Z,98.20
2022-10-13T14:27:48.660Z,98.20
2022-10-13T14:37:50.296Z,98.20
2022-10-13T14:47:53.577Z,98.30
2022-10-13T14:57:55.198Z,98.30
2022-10-13T15:07:56.802Z,98.40
2022-10-13T15:17:58.537Z,98.50
2022-10-13T15:28:00.191Z,98.60
2022-10-13T15:38:01.857Z,98.60
2022-10-13T15:48:05.698Z,98.70
2022-10-13T15:58:11.341Z,98.80
2022-10-13T16:08:15.252Z,98.90
2022-10-13T16:18:16.878Z,99.10
2022-10-13T16:28:18.554Z,99.20
2022-10-13T16:38:20.195Z,99.40
2022-10-13T16:48:21.896Z,99.60
2022-10-13T16:58:23.537Z,99.90
2022-10-13T17:08:25.248Z,99.90
2022-10-13T17:18:27.684Z,99.90
2022-10-13T17:28:29.372Z,99.90
2022-10-13T17:38:31.730Z,99.90
2022-10-13T17:48:33.487Z,99.90
2022-10-13T17:58:39.462Z,99.90
2022-10-13T18:08:41.461Z,99.90
2022-10-13T18:18:44.944Z,99.90
2022-10-13T18:28:47.741Z,99.90
2022-10-13T18:38:50.691Z,99.90
2022-10-13T18:48:52.392Z,99.90
2022-10-13T18:58:59.449Z,99.90
2022-10-13T19:09:04.513Z,99.90
2022-10-13T19:19:09.027Z,99.90
2022-10-13T19:29:13.465Z,99.90
2022-10-13T19:39:23.969Z,99.90
2022-10-13T19:49:26.410Z,99.90
2022-10-13T19:59:28.296Z,99.90
2022-10-13T20:09:29.932Z,99.90
2022-10-13T20:19:31.707Z,99.90
2022-10-13T20:29:33.334Z,99.90
2022-10-13T20:39:34.992Z,99.90
2022-10-13T20:49:36.644Z,99.90
2022-10-13T20:59:38.396Z,99.90
2022-10-13T21:09:40.030Z,99.90
2022-10-13T21:19:41.640Z,99.90
2022-10-13T21:29:43.252Z,99.90
2022-10-13T21:39:45.141Z,99.90
2022-10-13T21:49:46.778Z,99.90
2022-10-13T21:59:48.371Z,99.90
2022-10-13T22:09:49.986Z,99.90
2022-10-13T22:19:51.636Z,99.90
2022-10-13T22:29:53.569Z,99.90
2022-10-13T22:39:55.254Z,99.90
2022-10-13T22:49:56.856Z,99.90
2022-10-13T22:59:58.608Z,99.90
2022-10-13T23:10:00.237Z,99.90
2022-10-13T23:20:01.857Z,99.90
2022-10-13T23:30:04.351Z,99.90
2022-10-13T23:40:06.464Z,99.90
2022-10-13T23:50:08.419Z,99.90
